Saint-Henri, Canada
Current Conditions -  °F | °C
As of 11:00 PM on Friday 24 Oct 2014 (Local Time) from CYQB Reporting Station
Broken Clouds Broken Clouds  
Wind Chill: 41°   Ceiling: 24000
Heat Index: 41°   Visibility: 15mi
Dew Point: 34°   Wind: 2mph
Humidity: 76%   Direction: 280°W
Pressure: 29.78"   Gusts: NA
Location:  46.68°N, 71.07°W
Report Text: CYQB 250300Z 28002KT 15SM SCT140 BKN240 05/01 A2978 RMK AC3CI3 SLP087
Loading
Personal Weather Stations






























Interactive Weather Map
Tropical Storm Tracking
New forecast layout! Learn more

10-Day Weather Forecast

Advertisements
Track Severe Weather on mobile